Time;durP1;ratioP1;P1;durP2;ratioP2;P2;SDS_P1;SDS_P2;PMS_P1;PMS_P2;Temp;Humidity;BMP_temperature;BMP_pressure;BME280_temperature;BME280_humidity;BME280_pressure;Samples;Min_cycle;Max_cycle;Signal;HPM_P1;HPM_P2
2022/02/21 00:02:10;;;;;;;9.98;2.38;;;;;;;7.02;72.09;97900.53;5103662;28;20032;-70
2022/02/21 00:04:36;;;;;;;9.68;2.30;;;;;;;6.79;72.05;97907.25;5103664;28;20783;-70
2022/02/21 00:07:01;;;;;;;6.28;2.00;;;;;;;6.70;73.14;97891.28;5103526;28;20496;-69
2022/02/21 00:09:27;;;;;;;7.85;2.58;;;;;;;6.62;72.08;97910.09;5102784;28;20027;-69
2022/02/21 00:11:53;;;;;;;9.48;2.72;;;;;;;6.57;72.36;97902.56;5102882;28;20118;-69
2022/02/21 00:14:18;;;;;;;5.43;2.17;;;;;;;6.52;72.50;97919.47;5103653;28;20043;-68
2022/02/21 00:16:44;;;;;;;12.48;2.53;;;;;;;6.47;72.47;97932.84;5103306;28;20480;-68
2022/02/21 00:19:09;;;;;;;7.68;2.67;;;;;;;6.42;72.98;97932.28;5103118;28;20396;-68
2022/02/21 00:21:35;;;;;;;10.30;3.03;;;;;;;6.36;73.51;97951.00;5095217;28;20044;-68
2022/02/21 00:24:00;;;;;;;6.68;2.30;;;;;;;6.30;73.03;97956.59;5098994;28;20035;-69
2022/02/21 00:26:25;;;;;;;10.07;2.50;;;;;;;6.26;73.54;97945.47;5102929;28;20139;-69
2022/02/21 00:28:51;;;;;;;7.03;2.50;;;;;;;6.23;73.98;97948.28;5102730;28;20036;-69
2022/02/21 00:31:16;;;;;;;5.68;2.55;;;;;;;6.22;72.60;97957.06;5102742;28;20042;-69
2022/02/21 00:33:42;;;;;;;5.50;1.90;;;;;;;6.24;73.29;97947.34;5084652;28;20078;-69
2022/02/21 00:36:07;;;;;;;5.57;2.95;;;;;;;6.26;72.89;97932.41;5081965;28;20051;-69
2022/02/21 00:38:33;;;;;;;6.90;2.00;;;;;;;6.28;73.14;97919.22;5082532;28;20027;-69
2022/02/21 00:40:59;;;;;;;6.63;2.35;;;;;;;6.30;72.99;97930.41;5082167;28;20093;-68
2022/02/21 00:43:24;;;;;;;7.57;2.50;;;;;;;6.29;73.26;97923.53;5082573;28;20067;-69
2022/02/21 00:45:50;;;;;;;8.77;2.50;;;;;;;6.31;72.20;97937.34;5082162;28;20182;-69
2022/02/21 00:48:16;;;;;;;7.57;2.17;;;;;;;6.37;72.01;97944.81;5082753;28;20088;-69
2022/02/21 00:50:42;;;;;;;10.27;2.40;;;;;;;6.40;71.71;97936.78;5081840;28;20758;-69
2022/02/21 00:53:07;;;;;;;9.65;3.17;;;;;;;6.41;70.33;97946.31;5081216;28;20036;-69
2022/02/21 00:55:35;;;;;;;9.50;3.00;;;;;;;6.46;70.28;97936.41;5081807;28;20043;-69
2022/02/21 00:58:04;;;;;;;7.80;2.75;;;;;;;6.51;69.19;97941.34;5077092;28;20096;-70
2022/02/21 01:00:30;;;;;;;5.65;2.65;;;;;;;6.52;68.76;97927.31;5087603;28;20040;-69
2022/02/21 01:02:55;;;;;;;5.80;3.42;;;;;;;6.52;69.00;97925.56;5088756;28;20489;-70
2022/02/21 01:05:21;;;;;;;10.98;2.03;;;;;;;6.55;67.35;97935.00;5087867;28;20443;-70
2022/02/21 01:07:46;;;;;;;10.20;2.28;;;;;;;6.58;67.82;97940.03;5088759;28;20516;-69
2022/02/21 01:10:12;;;;;;;6.93;2.80;;;;;;;6.56;67.61;97947.13;5088181;28;20036;-70
2022/02/21 01:12:37;;;;;;;10.65;4.13;;;;;;;6.53;68.42;97982.19;5053113;28;20043;-69
2022/02/21 01:15:06;;;;;;;10.35;2.50;;;;;;;6.45;69.65;98005.41;5088181;28;20024;-70
2022/02/21 01:17:31;;;;;;;11.15;3.05;;;;;;;6.37;69.48;97986.69;5087782;28;20043;-70
2022/02/21 01:19:58;;;;;;;10.20;3.22;;;;;;;6.17;69.76;97973.03;5087940;28;20039;-71
2022/02/21 01:22:24;;;;;;;10.00;3.10;;;;;;;5.93;70.92;98008.47;5087780;28;20031;-70
2022/02/21 01:24:50;;;;;;;8.23;3.38;;;;;;;5.78;72.00;98003.22;5087792;28;20031;-70
2022/02/21 01:27:16;;;;;;;7.47;2.38;;;;;;;5.75;72.57;97992.94;5088725;28;20039;-70
2022/02/21 01:29:42;;;;;;;6.93;2.60;;;;;;;5.75;73.02;97992.09;5087884;28;20028;-70
2022/02/21 01:32:08;;;;;;;7.57;3.03;;;;;;;5.75;73.17;97997.31;5087869;28;20039;-69
2022/02/21 01:34:34;;;;;;;6.90;2.78;;;;;;;5.73;73.17;98005.25;5088455;28;20036;-71
2022/02/21 01:36:59;;;;;;;8.65;2.47;;;;;;;5.74;73.49;98013.97;5088213;28;20036;-72
2022/02/21 01:39:25;;;;;;;10.00;3.20;;;;;;;5.74;72.28;98021.81;5087450;28;20106;-71
2022/02/21 01:41:50;;;;;;;10.45;3.50;;;;;;;5.67;71.84;98047.44;5087816;28;20034;-71
2022/02/21 01:44:16;;;;;;;11.55;3.45;;;;;;;5.56;72.40;98048.06;5088392;28;20039;-70
2022/02/21 01:46:42;;;;;;;9.27;2.80;;;;;;;5.50;72.33;98050.19;5087644;28;20374;-71
2022/02/21 01:49:09;;;;;;;10.90;3.30;;;;;;;5.52;73.13;98069.25;5088088;28;20043;-70
2022/02/21 01:51:37;;;;;;;22.90;4.07;;;;;;;5.50;73.21;98068.47;5088136;28;20097;-70
2022/02/21 01:54:09;;;;;;;8.50;2.53;;;;;;;5.52;73.45;98087.53;5086893;28;20024;-70
2022/02/21 01:56:36;;;;;;;8.77;3.20;;;;;;;5.51;72.48;98067.53;5075574;28;20028;-70
2022/02/21 01:59:02;;;;;;;11.23;2.70;;;;;;;5.35;72.08;98076.25;5067112;28;20029;-70
2022/02/21 02:01:27;;;;;;;5.88;2.95;;;;;;;5.18;72.54;98065.88;5039760;28;20098;-70
2022/02/21 02:03:53;;;;;;;6.25;2.28;;;;;;;5.09;72.33;98061.16;5064868;28;20041;-69
2022/02/21 02:06:19;;;;;;;10.25;3.30;;;;;;;4.99;73.49;98058.19;5080296;28;20039;-70
2022/02/21 02:08:44;;;;;;;9.18;3.72;;;;;;;4.96;73.63;98066.22;5074810;28;20047;-70
2022/02/21 02:11:12;;;;;;;15.57;3.53;;;;;;;4.92;73.51;98068.16;5069508;28;20074;-70
2022/02/21 02:13:37;;;;;;;10.25;3.03;;;;;;;4.91;73.30;98068.22;5108076;28;20038;-70
2022/02/21 02:16:03;;;;;;;8.20;2.40;;;;;;;4.91;73.64;98057.78;5107967;28;20400;-69
2022/02/21 02:18:28;;;;;;;10.00;3.60;;;;;;;4.89;73.95;98050.03;5102613;28;20524;-69
2022/02/21 02:20:53;;;;;;;14.40;2.95;;;;;;;4.90;73.86;98056.94;5054614;28;20036;-70
2022/02/21 02:23:19;;;;;;;7.70;3.05;;;;;;;4.91;73.83;98070.84;5049822;28;20040;-70
2022/02/21 02:25:44;;;;;;;8.05;2.45;;;;;;;4.91;72.49;98076.06;5066320;28;20571;-70
2022/02/21 02:28:10;;;;;;;10.00;3.08;;;;;;;4.93;72.52;98067.22;5067271;28;20041;-69
2022/02/21 02:30:35;;;;;;;7.57;3.08;;;;;;;4.94;72.51;98070.66;5071747;28;20051;-68
2022/02/21 02:33:01;;;;;;;14.55;4.30;;;;;;;4.97;72.74;98077.50;5092225;28;20704;-68
2022/02/21 02:35:27;;;;;;;8.98;3.10;;;;;;;4.95;71.61;98086.25;5107317;28;20062;-69
2022/02/21 02:37:54;;;;;;;4.53;2.75;;;;;;;4.97;73.16;98077.50;5108428;28;20056;-69
2022/02/21 02:40:20;;;;;;;14.63;5.18;;;;;;;4.97;72.36;98077.50;5107705;28;20039;-69
2022/02/21 02:42:45;;;;;;;9.30;2.72;;;;;;;4.99;71.46;98083.47;5107689;28;20031;-68
2022/02/21 02:45:11;;;;;;;7.55;2.58;;;;;;;5.00;70.69;98080.78;5107525;28;20669;-70
2022/02/21 02:47:36;;;;;;;9.10;3.42;;;;;;;5.00;69.13;98072.97;5107969;28;20046;-69
2022/02/21 02:50:02;;;;;;;11.05;3.55;;;;;;;5.03;68.54;98071.94;5107362;28;20032;-69
2022/02/21 02:52:27;;;;;;;11.70;3.00;;;;;;;5.06;68.07;98071.78;5107914;28;20036;-69
2022/02/21 02:54:52;;;;;;;11.90;3.13;;;;;;;5.05;66.67;98080.56;5107679;28;20043;-68
2022/02/21 02:57:18;;;;;;;10.25;2.85;;;;;;;5.06;64.96;98075.22;5108184;28;20032;-69
2022/02/21 02:59:43;;;;;;;11.07;2.45;;;;;;;5.11;64.50;98069.75;5111208;28;20035;-69
2022/02/21 03:02:08;;;;;;;7.05;2.30;;;;;;;5.09;65.21;98074.22;5111686;28;20066;-69
2022/02/21 03:04:34;;;;;;;8.65;3.45;;;;;;;5.04;64.26;98066.63;5090472;28;20036;-69
2022/02/21 03:07:00;;;;;;;7.72;2.30;;;;;;;5.04;64.46;98074.47;5091339;28;20111;-69
2022/02/21 03:09:27;;;;;;;7.03;2.70;;;;;;;4.97;62.40;98082.72;5092021;28;20040;-69
2022/02/21 03:11:52;;;;;;;8.00;3.00;;;;;;;4.93;62.50;98100.31;5073489;28;20493;-69
2022/02/21 03:14:19;;;;;;;20.02;4.00;;;;;;;4.91;62.43;98092.56;5091450;28;20043;-69
2022/02/21 03:16:44;;;;;;;11.10;2.92;;;;;;;4.93;61.93;98089.88;5091881;28;20519;-69
2022/02/21 03:19:09;;;;;;;9.13;3.75;;;;;;;4.93;62.32;98080.28;5092632;28;20028;-69
2022/02/21 03:21:35;;;;;;;9.90;2.35;;;;;;;4.94;62.54;98089.78;5092176;28;20054;-69
2022/02/21 03:24:00;;;;;;;6.68;2.65;;;;;;;4.98;60.85;98072.19;5090978;28;20032;-70
2022/02/21 03:26:25;;;;;;;7.15;2.58;;;;;;;5.02;61.11;98081.56;5091479;28;20039;-69
2022/02/21 03:28:51;;;;;;;6.90;3.10;;;;;;;5.05;60.72;98098.81;5087322;28;20030;-70
2022/02/21 03:31:16;;;;;;;11.40;3.60;;;;;;;5.09;60.65;98089.88;5072997;28;20405;-70
2022/02/21 03:33:42;;;;;;;17.75;4.55;;;;;;;5.10;60.22;98100.25;5073884;28;20039;-69
2022/02/21 03:36:08;;;;;;;9.23;3.25;;;;;;;5.14;60.46;98098.31;5090873;28;20036;-70
2022/02/21 03:38:33;;;;;;;14.13;3.75;;;;;;;5.12;61.24;98113.25;5091079;28;20039;-69
2022/02/21 03:40:59;;;;;;;8.30;2.10;;;;;;;5.12;61.22;98101.03;5089975;28;20040;-70
2022/02/21 03:43:25;;;;;;;17.83;3.35;;;;;;;5.09;60.24;98105.56;5090734;28;20485;-70
2022/02/21 03:45:50;;;;;;;11.73;2.35;;;;;;;5.08;61.56;98096.03;5090268;28;20493;-69
2022/02/21 03:48:16;;;;;;;6.88;2.78;;;;;;;5.08;60.97;98107.31;5090109;28;20124;-70
2022/02/21 03:50:42;;;;;;;18.02;5.07;;;;;;;5.11;61.89;98116.75;5087387;28;20040;-70
2022/02/21 03:53:07;;;;;;;8.38;2.38;;;;;;;5.09;63.05;98116.00;5080868;28;20040;-70
2022/02/21 03:55:32;;;;;;;9.05;3.65;;;;;;;5.07;62.42;98091.72;5071610;28;20111;-70
2022/02/21 03:57:58;;;;;;;11.52;3.20;;;;;;;5.08;63.11;98107.31;5090653;28;20440;-71
2022/02/21 04:00:23;;;;;;;10.07;3.05;;;;;;;5.06;63.18;98113.56;5072027;28;20058;-70
2022/02/21 04:02:48;;;;;;;12.30;3.58;;;;;;;5.05;63.56;98117.94;5088039;28;20579;-70
2022/02/21 04:05:14;;;;;;;12.18;3.42;;;;;;;5.03;63.96;98098.06;5070131;28;20036;-70
2022/02/21 04:07:42;;;;;;;15.10;5.07;;;;;;;5.00;63.47;98114.75;5069241;28;20513;-71
2022/02/21 04:10:09;;;;;;;13.68;4.20;;;;;;;4.94;62.59;98102.84;5065359;28;20086;-71
2022/02/21 04:12:35;;;;;;;14.23;3.47;;;;;;;4.91;62.53;98120.44;5069277;28;20032;-70
2022/02/21 04:15:00;;;;;;;20.05;4.47;;;;;;;4.88;61.85;98129.28;5069206;28;20039;-70
2022/02/21 04:17:25;;;;;;;19.40;4.13;;;;;;;4.81;61.85;98146.19;5069540;28;20036;-70
2022/02/21 04:19:51;;;;;;;12.77;4.18;;;;;;;4.73;60.66;98143.16;5068999;28;20445;-71
2022/02/21 04:22:16;;;;;;;10.25;2.80;;;;;;;4.67;61.38;98131.25;5068934;28;20036;-71
2022/02/21 04:24:41;;;;;;;11.45;4.22;;;;;;;4.64;61.17;98146.22;5069211;28;20489;-70
2022/02/21 04:27:08;;;;;;;12.98;4.03;;;;;;;4.64;61.56;98136.63;5068462;28;20067;-70
2022/02/21 04:29:33;;;;;;;10.65;4.03;;;;;;;4.64;60.23;98148.84;5069513;28;20038;-70
2022/02/21 04:31:58;;;;;;;12.20;4.57;;;;;;;4.65;60.02;98166.16;5069516;28;20028;-71
2022/02/21 04:34:24;;;;;;;13.18;3.05;;;;;;;4.68;60.83;98155.59;5051449;28;20043;-71
2022/02/21 04:36:50;;;;;;;15.32;4.03;;;;;;;4.69;60.64;98168.56;5068762;28;20035;-70
2022/02/21 04:39:15;;;;;;;14.45;4.28;;;;;;;4.69;60.65;98162.50;5068947;28;20044;-71
2022/02/21 04:41:41;;;;;;;9.30;4.20;;;;;;;4.69;59.78;98163.34;5068577;28;20083;-70
2022/02/21 04:44:07;;;;;;;15.85;4.68;;;;;;;4.67;59.64;98169.56;5068416;28;20032;-71
2022/02/21 04:46:32;;;;;;;11.10;3.08;;;;;;;4.65;59.49;98169.66;5068411;28;20033;-71
2022/02/21 04:48:58;;;;;;;8.63;2.85;;;;;;;4.62;59.67;98169.78;5069277;28;20032;-72
2022/02/21 04:51:23;;;;;;;21.75;4.18;;;;;;;4.61;59.90;98162.06;5068856;28;20039;-71
2022/02/21 04:53:49;;;;;;;13.23;3.55;;;;;;;4.58;60.23;98160.44;5068730;28;20656;-70
2022/02/21 04:56:14;;;;;;;39.78;5.35;;;;;;;4.58;60.25;98164.78;5069079;28;20438;-71
2022/02/21 04:58:40;;;;;;;11.25;3.38;;;;;;;4.57;60.66;98170.94;5068510;28;20041;-70
2022/02/21 05:01:06;;;;;;;14.95;3.92;;;;;;;4.55;60.45;98160.56;5068089;28;20028;-71
2022/02/21 05:03:31;;;;;;;12.57;3.60;;;;;;;4.57;61.23;98163.97;5054463;28;20036;-70
2022/02/21 05:05:56;;;;;;;11.65;5.18;;;;;;;4.54;61.21;98164.13;5088483;28;20068;-70
2022/02/21 05:08:21;;;;;;;15.20;5.65;;;;;;;4.53;61.54;98162.44;5081474;28;20558;-71
2022/02/21 05:10:47;;;;;;;20.20;3.97;;;;;;;4.55;61.66;98164.97;5104006;28;20122;-70
2022/02/21 05:13:12;;;;;;;13.32;4.40;;;;;;;4.50;61.36;98157.34;5052103;28;20573;-69
2022/02/21 05:15:38;;;;;;;12.75;4.03;;;;;;;4.50;61.18;98144.31;5068062;28;20123;-70
2022/02/21 05:18:03;;;;;;;15.55;4.00;;;;;;;4.49;61.39;98135.66;5068267;28;20043;-70
2022/02/21 05:20:28;;;;;;;19.67;5.28;;;;;;;4.49;62.08;98147.84;5068841;28;20115;-70
2022/02/21 05:22:54;;;;;;;25.10;5.15;;;;;;;4.48;61.60;98148.78;5068165;28;20029;-70
2022/02/21 05:25:19;;;;;;;14.05;3.65;;;;;;;4.51;61.27;98157.28;5067382;28;20537;-69
2022/02/21 05:27:45;;;;;;;18.40;3.97;;;;;;;4.55;61.33;98155.34;5067795;28;20037;-69
2022/02/21 05:30:13;;;;;;;15.75;5.97;;;;;;;4.58;60.90;98142.19;5067939;28;20048;-70
2022/02/21 05:32:38;;;;;;;9.88;3.60;;;;;;;4.57;60.58;98143.09;5067562;28;20055;-69
2022/02/21 05:35:04;;;;;;;13.23;3.72;;;;;;;4.59;61.24;98143.84;5067769;28;20029;-68
2022/02/21 05:37:30;;;;;;;11.23;3.95;;;;;;;4.57;60.92;98137.84;5067503;28;20131;-70
2022/02/21 05:39:55;;;;;;;13.48;4.68;;;;;;;4.61;61.17;98149.84;5074313;28;20534;-68
2022/02/21 05:42:20;;;;;;;23.40;5.18;;;;;;;4.62;60.13;98145.47;5075773;28;20528;-70
2022/02/21 05:44:46;;;;;;;14.07;3.25;;;;;;;4.62;60.14;98141.06;5067738;28;20064;-69
2022/02/21 05:47:11;;;;;;;16.33;3.83;;;;;;;4.65;60.24;98147.91;5067875;28;20165;-69
2022/02/21 05:49:37;;;;;;;16.58;4.70;;;;;;;4.67;59.20;98128.63;5049663;28;20333;-69
2022/02/21 05:52:03;;;;;;;9.68;5.25;;;;;;;4.70;59.05;98156.34;5067899;28;20456;-69
2022/02/21 05:54:29;;;;;;;18.08;3.90;;;;;;;4.71;59.38;98148.44;5068266;28;20037;-69
2022/02/21 05:56:55;;;;;;;10.63;3.72;;;;;;;4.71;58.99;98165.88;5069623;28;20039;-69
2022/02/21 05:59:21;;;;;;;12.05;3.72;;;;;;;4.72;58.05;98151.88;5080251;28;20044;-71
2022/02/21 06:01:46;;;;;;;20.40;5.43;;;;;;;4.72;58.94;98147.50;5108144;28;20024;-68
2022/02/21 06:04:12;;;;;;;10.48;3.83;;;;;;;4.70;57.98;98154.59;5081072;28;20029;-69
2022/02/21 06:06:37;;;;;;;11.88;3.67;;;;;;;4.70;58.07;98165.03;5068202;28;20040;-69
2022/02/21 06:09:04;;;;;;;14.43;3.85;;;;;;;4.67;58.00;98152.13;5067948;28;20036;-70
2022/02/21 06:11:29;;;;;;;9.15;3.88;;;;;;;4.65;57.61;98153.13;5068233;28;20028;-69
2022/02/21 06:13:55;;;;;;;9.98;3.75;;;;;;;4.63;58.16;98162.81;5067117;28;20470;-69
2022/02/21 06:16:20;;;;;;;10.90;4.03;;;;;;;4.62;58.45;98156.72;5067726;28;20036;-68
2022/02/21 06:18:45;;;;;;;9.93;3.70;;;;;;;4.60;58.15;98157.72;5067714;28;20593;-68
2022/02/21 06:21:11;;;;;;;11.70;4.03;;;;;;;4.52;58.42;98155.53;5067244;28;20052;-69
2022/02/21 06:23:36;;;;;;;14.65;3.97;;;;;;;4.50;59.60;98152.13;5067534;28;20117;-69
2022/02/21 06:26:02;;;;;;;16.13;4.00;;;;;;;4.44;59.79;98166.34;5067226;28;20119;-72
2022/02/21 06:28:28;;;;;;;19.52;4.90;;;;;;;4.42;60.34;98159.53;5067757;28;20097;-71
2022/02/21 06:30:54;;;;;;;17.77;3.75;;;;;;;4.38;60.55;98177.13;5064727;28;20029;-70
2022/02/21 06:33:19;;;;;;;25.23;5.72;;;;;;;4.35;60.99;98185.06;5069392;28;20097;-70
2022/02/21 06:35:45;;;;;;;16.73;4.25;;;;;;;4.29;61.18;98178.41;5070539;28;20041;-70
2022/02/21 06:38:11;;;;;;;25.52;4.80;;;;;;;4.25;61.87;98192.50;5071038;28;20025;-70
2022/02/21 06:40:36;;;;;;;17.92;3.83;;;;;;;4.23;60.39;98189.16;5052906;28;20558;-71
2022/02/21 06:43:01;;;;;;;10.27;4.10;;;;;;;4.20;60.69;98199.72;5070703;28;20398;-70
2022/02/21 06:45:27;;;;;;;10.45;4.63;;;;;;;4.19;61.53;98192.81;5070921;28;20029;-70
2022/02/21 06:47:54;;;;;;;15.55;3.25;;;;;;;4.18;60.89;98195.50;5070787;28;20037;-71
2022/02/21 06:50:19;;;;;;;17.92;5.60;;;;;;;4.19;60.53;98195.44;5075672;28;20040;-69
2022/02/21 06:52:45;;;;;;;8.65;3.58;;;;;;;4.21;60.38;98196.19;5078909;28;20037;-69
2022/02/21 06:55:13;;;;;;;11.52;3.55;;;;;;;4.24;60.98;98209.09;5069615;28;20432;-71
2022/02/21 06:57:40;;;;;;;9.82;3.78;;;;;;;4.25;60.86;98209.91;5070902;28;20053;-70
2022/02/21 07:00:06;;;;;;;14.57;3.65;;;;;;;4.27;61.35;98211.53;5070418;28;20036;-71
2022/02/21 07:02:31;;;;;;;9.27;2.78;;;;;;;4.28;61.15;98214.97;5069909;28;20043;-71
2022/02/21 07:04:56;;;;;;;22.80;6.15;;;;;;;4.33;61.31;98222.59;5070549;28;20040;-71
2022/02/21 07:07:22;;;;;;;13.68;3.22;;;;;;;4.31;60.83;98209.63;5069979;28;20037;-70
2022/02/21 07:09:47;;;;;;;16.05;3.20;;;;;;;4.31;61.15;98209.63;5075625;28;20036;-71
2022/02/21 07:12:12;;;;;;;13.02;3.10;;;;;;;4.29;61.04;98211.47;5090588;28;20032;-70
2022/02/21 07:14:38;;;;;;;14.35;3.63;;;;;;;4.27;61.41;98197.66;5072709;28;20501;-71
2022/02/21 07:17:03;;;;;;;10.48;3.03;;;;;;;4.28;60.85;98201.94;5072688;28;20044;-71
2022/02/21 07:19:29;;;;;;;10.88;3.70;;;;;;;4.27;61.09;98208.09;5090992;28;20032;-72
2022/02/21 07:21:54;;;;;;;6.55;3.10;;;;;;;4.26;61.51;98211.63;5090612;28;20111;-72
2022/02/21 07:24:20;;;;;;;17.52;5.20;;;;;;;4.27;61.88;98219.34;5091995;28;20081;-72
2022/02/21 07:26:45;;;;;;;11.48;3.30;;;;;;;4.30;61.68;98203.56;5090212;28;20043;-71
2022/02/21 07:29:11;;;;;;;11.88;4.25;;;;;;;4.34;61.39;98212.09;5089980;28;20047;-70
2022/02/21 07:31:37;;;;;;;9.95;4.07;;;;;;;4.37;61.12;98198.03;5090667;28;20115;-71
2022/02/21 07:34:02;;;;;;;10.40;3.88;;;;;;;4.39;60.70;98215.31;5073064;28;20055;-70
2022/02/21 07:36:28;;;;;;;10.20;4.28;;;;;;;4.38;61.04;98233.63;5093391;28;20071;-70
2022/02/21 07:38:54;;;;;;;12.13;2.60;;;;;;;4.37;60.38;98231.97;5093171;28;20549;-70
2022/02/21 07:41:19;;;;;;;13.95;3.38;;;;;;;4.39;59.86;98230.97;5089952;28;20039;-71
2022/02/21 07:43:45;;;;;;;10.50;2.83;;;;;;;4.47;59.66;98213.16;5090176;28;20047;-69
2022/02/21 07:46:10;;;;;;;11.85;3.42;;;;;;;4.50;59.11;98225.19;5089567;28;20024;-70
2022/02/21 07:48:36;;;;;;;9.57;3.45;;;;;;;4.56;59.51;98218.84;5089609;28;20040;-69
2022/02/21 07:51:02;;;;;;;15.75;4.18;;;;;;;4.61;58.91;98217.69;5090609;28;20039;-70
2022/02/21 07:53:27;;;;;;;12.07;2.80;;;;;;;4.69;60.16;98225.97;5089686;28;20036;-70
2022/02/21 07:55:52;;;;;;;7.43;3.50;;;;;;;4.77;58.90;98228.19;5058757;28;20044;-68
2022/02/21 07:58:18;;;;;;;16.00;4.30;;;;;;;4.83;58.28;98225.28;5069729;28;20051;-68
2022/02/21 08:00:44;;;;;;;13.65;2.92;;;;;;;4.88;59.32;98212.00;5079006;28;20036;-68
2022/02/21 08:03:09;;;;;;;13.18;3.78;;;;;;;4.93;59.24;98187.34;5089786;28;20043;-68
2022/02/21 08:05:36;;;;;;;10.27;3.20;;;;;;;4.91;58.46;98198.78;5089281;28;20097;-68
2022/02/21 08:08:02;;;;;;;12.48;3.40;;;;;;;4.89;58.87;98213.69;5090211;28;20566;-68
2022/02/21 08:10:28;;;;;;;13.23;3.70;;;;;;;4.90;59.43;98194.50;5089554;28;20047;-66
2022/02/21 08:12:53;;;;;;;10.25;3.05;;;;;;;4.91;58.42;98197.00;5089667;28;20047;-67
2022/02/21 08:15:19;;;;;;;14.98;4.47;;;;;;;4.90;58.51;98202.31;5084581;28;20097;-67
2022/02/21 08:17:46;;;;;;;13.35;4.35;;;;;;;4.91;59.33;98198.78;5072333;28;20033;-67
2022/02/21 08:20:15;;;;;;;12.15;3.78;;;;;;;4.84;59.00;98189.56;5086287;28;20067;-65
2022/02/21 08:22:41;;;;;;;12.77;3.67;;;;;;;4.89;59.57;98193.63;5070520;28;20059;-66
2022/02/21 08:25:07;;;;;;;13.52;4.47;;;;;;;4.93;58.88;98195.16;5081728;28;20052;-64
2022/02/21 08:27:37;;;;;;;14.43;3.42;;;;;;;4.95;58.87;98188.09;5079032;28;20044;-66
2022/02/21 08:30:05;;;;;;;12.13;4.57;;;;;;;4.94;58.28;98178.56;5080046;28;20109;-66
2022/02/21 08:32:30;;;;;;;14.82;4.15;;;;;;;5.02;58.91;98177.31;5086021;28;20050;-67
2022/02/21 08:34:55;;;;;;;14.88;5.28;;;;;;;5.07;58.46;98183.16;5086223;28;20036;-67
2022/02/21 08:37:21;;;;;;;9.10;3.92;;;;;;;5.18;58.74;98183.44;5082960;28;20031;-67
2022/02/21 08:39:46;;;;;;;8.23;2.92;;;;;;;5.30;57.75;98179.31;5081491;28;20043;-66
2022/02/21 08:42:11;;;;;;;12.55;3.45;;;;;;;5.32;57.56;98188.78;5069663;28;20046;-69
2022/02/21 08:44:37;;;;;;;21.35;3.55;;;;;;;5.34;56.93;98183.44;5061492;28;20074;-69
2022/02/21 08:47:02;;;;;;;18.58;3.30;;;;;;;5.30;57.24;98188.00;5093721;28;20566;-69
2022/02/21 08:49:28;;;;;;;6.93;3.17;;;;;;;5.37;57.27;98193.75;5099255;28;20043;-68
2022/02/21 08:51:53;;;;;;;14.73;3.00;;;;;;;5.42;57.16;98180.44;5093718;28;20039;-71
2022/02/21 08:54:19;;;;;;;6.80;3.63;;;;;;;5.45;56.69;98178.50;5102296;28;20035;-71
2022/02/21 08:56:45;;;;;;;9.98;3.63;;;;;;;5.51;56.40;98179.91;5088239;28;20036;-70
2022/02/21 08:59:11;;;;;;;11.50;3.15;;;;;;;5.60;55.84;98195.13;5088253;28;20444;-71
2022/02/21 09:01:39;;;;;;;9.43;3.67;;;;;;;5.74;55.56;98174.28;5089146;28;20111;-71
2022/02/21 09:04:05;;;;;;;10.70;4.00;;;;;;;5.82;55.23;98169.47;5089622;28;20081;-70
2022/02/21 09:06:31;;;;;;;15.35;3.08;;;;;;;5.98;54.76;98179.97;5088251;28;20036;-70
2022/02/21 09:08:56;;;;;;;13.13;3.90;;;;;;;5.99;54.97;98179.00;5084424;28;20040;-70
2022/02/21 09:11:21;;;;;;;10.30;3.17;;;;;;;6.04;54.45;98175.31;5064264;28;20059;-71
2022/02/21 09:13:47;;;;;;;13.63;3.38;;;;;;;6.18;54.15;98162.28;5057928;28;20048;-70
2022/02/21 09:16:12;;;;;;;5.97;2.90;;;;;;;6.32;54.80;98171.94;5065881;28;20398;-70
2022/02/21 09:18:37;;;;;;;8.00;3.33;;;;;;;6.28;54.34;98158.19;5069625;28;20036;-69
2022/02/21 09:21:03;;;;;;;7.97;3.47;;;;;;;6.84;53.47;98155.75;5066860;28;20082;-70
2022/02/21 09:23:28;;;;;;;39.78;5.60;;;;;;;6.81;52.97;98156.78;5067281;28;20093;-70
2022/02/21 09:25:55;;;;;;;15.13;4.03;;;;;;;7.13;53.19;98161.84;5067159;28;20625;-70
2022/02/21 09:28:20;;;;;;;13.52;4.10;;;;;;;8.17;50.47;98138.66;5067078;28;20063;-70
2022/02/21 09:30:45;;;;;;;13.52;3.95;;;;;;;8.08;50.48;98137.47;5085962;28;20052;-70
2022/02/21 09:33:11;;;;;;;12.75;4.15;;;;;;;7.77;50.48;98135.16;5066765;28;20132;-70
2022/02/21 09:35:36;;;;;;;15.93;4.45;;;;;;;7.46;51.63;98147.63;5066950;28;20032;-71
2022/02/21 09:38:02;;;;;;;12.52;3.63;;;;;;;7.20;52.59;98142.19;5067204;28;20032;-71
2022/02/21 09:40:27;;;;;;;13.10;3.15;;;;;;;6.99;53.64;98148.75;5065979;28;20070;-71
2022/02/21 09:42:53;;;;;;;15.57;4.40;;;;;;;6.77;54.15;98154.44;5067036;28;20024;-71
2022/02/21 09:45:18;;;;;;;10.73;3.90;;;;;;;6.65;54.56;98135.94;5066571;28;20652;-70
2022/02/21 09:47:44;;;;;;;14.57;4.13;;;;;;;6.54;55.12;98127.88;5066871;28;20068;-71
2022/02/21 09:50:11;;;;;;;11.82;3.53;;;;;;;6.50;55.32;98110.69;5066811;28;20106;-70
2022/02/21 09:52:37;;;;;;;14.05;3.95;;;;;;;6.47;55.56;98113.44;5067279;28;20056;-70
2022/02/21 09:55:04;;;;;;;9.95;4.45;;;;;;;6.45;55.99;98117.97;5066912;28;20512;-70
2022/02/21 09:57:29;;;;;;;12.27;4.03;;;;;;;6.39;56.08;98110.44;5049040;28;20059;-69
2022/02/21 09:59:54;;;;;;;20.90;5.43;;;;;;;6.40;56.73;98114.78;5066143;28;20048;-71
2022/02/21 10:02:23;;;;;;;17.67;4.18;;;;;;;6.39;56.39;98103.44;5081458;28;20063;-71
2022/02/21 10:05:12;;;;;;;13.25;3.72;;;;;;;6.38;57.56;98087.84;5085979;28;20081;-71
2022/02/21 10:07:39;;;;;;;8.05;3.08;;;;;;;6.31;57.71;98091.75;5069341;28;20079;-71
2022/02/21 10:10:05;;;;;;;10.05;3.63;;;;;;;6.22;58.78;98096.56;5070448;28;20504;-70
2022/02/21 10:12:31;;;;;;;18.08;4.70;;;;;;;6.13;59.99;98102.38;5073017;28;20033;-71
2022/02/21 10:15:13;;;;;;;23.20;5.45;;;;;;;5.89;62.13;98103.75;5070339;28;20390;-72
2022/02/21 10:17:38;;;;;;;16.20;3.88;;;;;;;5.80;63.74;98105.09;5070692;28;20390;-71
2022/02/21 10:20:05;;;;;;;18.52;3.75;;;;;;;5.72;64.95;98104.72;5070907;28;20040;-71
2022/02/21 10:22:32;;;;;;;14.50;3.72;;;;;;;5.61;66.23;98089.59;5071496;28;20035;-70
2022/02/21 10:24:59;;;;;;;13.85;3.83;;;;;;;5.45;68.33;98089.63;5070313;28;20044;-71
2022/02/21 10:27:29;;;;;;;25.88;5.15;;;;;;;5.34;68.91;98081.53;5070361;28;20111;-71
2022/02/21 10:30:05;;;;;;;10.93;3.35;;;;;;;5.29;69.59;98086.19;5069737;28;20120;-71
2022/02/21 10:32:33;;;;;;;17.30;5.03;;;;;;;5.21;70.02;98080.53;5070134;28;20115;-70
2022/02/21 10:35:20;;;;;;;20.02;5.63;;;;;;;5.25;70.56;98085.50;5070238;28;20447;-70
2022/02/21 10:37:53;;;;;;;10.77;4.38;;;;;;;5.29;70.87;98094.00;5069522;28;20397;-70
2022/02/21 10:40:36;;;;;;;18.02;4.93;;;;;;;5.23;70.93;98094.38;5052143;28;20454;-70
2022/02/21 10:43:14;;;;;;;12.88;4.03;;;;;;;5.16;70.97;98089.47;5070765;28;20036;-71
2022/02/21 10:45:40;;;;;;;13.05;4.75;;;;;;;5.03;72.91;98093.69;5069337;28;20115;-70
2022/02/21 10:48:11;;;;;;;15.20;3.75;;;;;;;4.94;73.13;98095.00;5070348;28;20078;-70
2022/02/21 10:50:53;;;;;;;26.52;5.88;;;;;;;4.89;74.30;98089.19;5069997;28;20052;-71
2022/02/21 10:53:23;;;;;;;12.00;3.95;;;;;;;4.81;74.21;98096.59;5070206;28;20043;-72
2022/02/21 10:55:53;;;;;;;19.83;4.88;;;;;;;4.80;75.24;98081.00;5070115;28;20055;-70
2022/02/21 10:58:22;;;;;;;10.25;4.68;;;;;;;4.78;76.48;98091.53;5070380;28;20085;-71
2022/02/21 11:00:50;;;;;;;21.42;5.60;;;;;;;4.77;76.70;98083.78;5069881;28;20029;-71
2022/02/21 11:03:25;;;;;;;17.48;5.25;;;;;;;4.71;76.67;98077.97;5070563;28;20033;-71
2022/02/21 11:05:53;;;;;;;11.60;3.92;;;;;;;4.61;77.16;98074.16;5071147;28;20052;-71
2022/02/21 11:08:20;;;;;;;8.63;4.53;;;;;;;4.58;77.91;98078.69;5053824;28;20029;-70
2022/02/21 11:11:04;;;;;;;20.38;3.85;;;;;;;4.54;79.02;98082.38;5069801;28;20040;-72
2022/02/21 11:13:29;;;;;;;17.63;4.60;;;;;;;4.50;78.82;98082.56;5070986;28;20044;-71
2022/02/21 11:15:56;;;;;;;20.05;5.13;;;;;;;4.45;78.99;98065.44;5081769;28;20035;-72
2022/02/21 11:18:22;;;;;;;18.45;4.68;;;;;;;4.42;79.84;98063.00;5090408;28;20020;-70
2022/02/21 11:20:47;;;;;;;17.10;4.65;;;;;;;4.41;79.93;98066.53;5089448;28;20052;-71
2022/02/21 11:23:13;;;;;;;16.13;5.78;;;;;;;4.41;80.42;98049.09;5090005;28;20055;-70
2022/02/21 11:25:51;;;;;;;13.93;4.43;;;;;;;4.40;79.97;98049.19;5090105;28;20458;-70
2022/02/21 11:28:22;;;;;;;24.08;4.90;;;;;;;4.36;80.53;98038.06;5090009;28;20499;-70
2022/02/21 11:30:49;;;;;;;11.45;4.55;;;;;;;4.37;81.07;98046.72;5089687;28;20111;-70
2022/02/21 11:33:15;;;;;;;14.07;3.38;;;;;;;4.40;80.78;98057.84;5090289;28;20046;-70